Time;durP1;ratioP1;P1;durP2;ratioP2;P2;SDS_P1;SDS_P2;PMS_P1;PMS_P2;Temp;Humidity;BMP_temperature;BMP_pressure;BME280_temperature;BME280_humidity;BME280_pressure;Samples;Min_cycle;Max_cycle;Signal;HPM_P1;HPM_P2
2022/04/23 00:01:15;;;;;;;5.28;4.32;;;11.70;61.70;;;;;;5078575;28;20408;-62
2022/04/23 00:03:41;;;;;;;5.47;4.60;;;11.70;61.80;;;;;;5067076;28;20091;-61
2022/04/23 00:06:07;;;;;;;5.88;4.88;;;11.70;61.90;;;;;;5077515;28;20067;-61
2022/04/23 00:08:32;;;;;;;5.13;4.60;;;11.70;61.80;;;;;;5074344;28;20473;-61
2022/04/23 00:10:59;;;;;;;5.55;4.85;;;11.70;61.90;;;;;;5079119;28;20021;-61
2022/04/23 00:13:25;;;;;;;6.13;5.00;;;11.70;62.10;;;;;;5073028;28;20426;-62
2022/04/23 00:15:51;;;;;;;5.85;4.95;;;11.80;62.20;;;;;;5088566;28;20395;-61
2022/04/23 00:18:18;;;;;;;5.28;4.78;;;11.80;62.20;;;;;;5077511;28;20442;-62
2022/04/23 00:20:46;;;;;;;6.10;5.00;;;11.80;62.50;;;;;;5073477;28;20036;-61
2022/04/23 00:23:13;;;;;;;5.95;5.32;;;11.90;62.80;;;;;;5080485;28;20029;-61
2022/04/23 00:25:39;;;;;;;6.25;5.35;;;11.90;63.10;;;;;;5077105;28;20032;-61
2022/04/23 00:28:06;;;;;;;6.97;5.60;;;11.90;63.20;;;;;;5085542;28;20492;-62
2022/04/23 00:30:33;;;;;;;5.60;4.57;;;11.90;63.60;;;;;;5079035;28;20515;-61
2022/04/23 00:33:00;;;;;;;5.75;4.53;;;11.90;63.60;;;;;;5086336;28;20236;-61
2022/04/23 00:35:26;;;;;;;5.60;5.00;;;11.90;63.90;;;;;;5070203;28;20024;-61
2022/04/23 00:37:52;;;;;;;6.18;5.30;;;11.90;64.70;;;;;;5078184;28;20024;-61
2022/04/23 00:40:19;;;;;;;6.30;5.28;;;11.90;64.30;;;;;;5079132;28;20025;-62
2022/04/23 00:42:46;;;;;;;6.40;5.43;;;11.90;64.60;;;;;;5073215;28;20039;-61
2022/04/23 00:45:12;;;;;;;5.85;5.25;;;11.80;64.80;;;;;;5078190;28;20095;-61
2022/04/23 00:47:38;;;;;;;5.68;4.53;;;11.80;65.10;;;;;;5072902;28;20056;-61
2022/04/23 00:50:04;;;;;;;5.78;4.68;;;11.70;65.30;;;;;;5072345;28;20025;-61
2022/04/23 00:52:32;;;;;;;6.47;5.20;;;11.70;65.40;;;;;;5074611;28;20085;-61
2022/04/23 00:55:02;;;;;;;6.22;5.03;;;11.60;65.90;;;;;;5072869;28;20043;-62
2022/04/23 00:57:28;;;;;;;6.65;5.50;;;11.50;66.20;;;;;;5080355;28;20360;-61
2022/04/23 00:59:54;;;;;;;6.20;5.60;;;11.50;66.70;;;;;;5077108;28;20032;-61
2022/04/23 01:02:19;;;;;;;6.18;5.55;;;11.50;66.90;;;;;;5079046;28;20062;-61
2022/04/23 01:04:46;;;;;;;6.22;5.63;;;11.60;67.10;;;;;;5078055;28;20054;-61
2022/04/23 01:07:13;;;;;;;6.43;5.78;;;11.50;67.10;;;;;;5083519;28;20029;-61
2022/04/23 01:09:39;;;;;;;4.82;4.35;;;11.60;67.30;;;;;;5070484;28;20479;-61
2022/04/23 01:12:05;;;;;;;5.93;4.97;;;11.60;67.40;;;;;;5085404;28;20032;-61
2022/04/23 01:14:31;;;;;;;5.63;4.85;;;11.50;67.60;;;;;;5079480;28;20028;-61
2022/04/23 01:16:57;;;;;;;4.93;4.43;;;11.40;67.80;;;;;;5087838;28;20033;-61
2022/04/23 01:19:23;;;;;;;5.40;4.90;;;11.30;68.20;;;;;;5060041;28;20037;-61
2022/04/23 01:21:49;;;;;;;6.28;4.70;;;11.30;68.50;;;;;;5076181;28;20036;-61
2022/04/23 01:24:15;;;;;;;5.82;5.18;;;11.20;69.00;;;;;;5072076;28;20503;-61
2022/04/23 01:26:41;;;;;;;6.00;4.95;;;11.10;69.60;;;;;;5082981;28;20027;-61
2022/04/23 01:29:07;;;;;;;5.80;5.15;;;11.00;69.90;;;;;;5081748;28;20514;-61
2022/04/23 01:31:33;;;;;;;5.60;5.00;;;11.00;70.40;;;;;;5075537;28;20029;-61
2022/04/23 01:33:59;;;;;;;5.30;4.50;;;11.00;70.70;;;;;;5071776;28;20029;-61
2022/04/23 01:36:24;;;;;;;5.30;4.72;;;11.00;71.00;;;;;;5073162;28;20040;-61
2022/04/23 01:38:50;;;;;;;5.60;4.80;;;10.90;71.10;;;;;;5073638;28;20660;-61
2022/04/23 01:41:16;;;;;;;6.07;5.18;;;10.80;71.20;;;;;;5072859;28;20430;-61
2022/04/23 01:43:42;;;;;;;5.70;5.10;;;10.80;71.60;;;;;;5082896;28;20024;-61
2022/04/23 01:46:08;;;;;;;5.63;5.00;;;10.70;71.90;;;;;;5067290;28;20028;-61
2022/04/23 01:48:34;;;;;;;5.97;5.28;;;10.60;72.20;;;;;;5079448;28;20559;-61
2022/04/23 01:50:59;;;;;;;5.90;4.97;;;10.60;72.50;;;;;;5076620;28;20121;-61
2022/04/23 01:53:25;;;;;;;7.25;5.75;;;10.60;72.70;;;;;;5075609;28;20711;-61
2022/04/23 01:55:52;;;;;;;5.80;5.00;;;10.50;73.00;;;;;;5077102;28;20031;-61
2022/04/23 01:58:18;;;;;;;7.13;5.65;;;10.50;73.50;;;;;;5075532;28;20032;-61
2022/04/23 02:00:44;;;;;;;5.88;5.30;;;10.50;73.80;;;;;;5064381;28;20097;-61
2022/04/23 02:03:09;;;;;;;6.10;5.50;;;10.50;74.00;;;;;;5082318;28;20426;-61
2022/04/23 02:05:35;;;;;;;5.97;5.35;;;10.40;74.40;;;;;;5092982;28;20097;-61
2022/04/23 02:08:01;;;;;;;6.68;5.88;;;10.40;74.40;;;;;;5085802;28;20383;-61
2022/04/23 02:10:26;;;;;;;6.32;5.07;;;10.40;74.80;;;;;;5082915;28;20379;-61
2022/04/23 02:12:52;;;;;;;6.53;5.82;;;10.30;75.00;;;;;;5076509;28;20025;-61
2022/04/23 02:15:18;;;;;;;5.68;5.07;;;10.30;75.30;;;;;;5079938;28;20471;-61
2022/04/23 02:17:45;;;;;;;5.70;5.10;;;10.30;75.40;;;;;;5065713;28;20108;-61
2022/04/23 02:20:18;;;;;;;6.50;5.15;;;10.20;75.70;;;;;;5075456;28;20043;-61
2022/04/23 02:22:44;;;;;;;6.45;5.28;;;10.20;75.90;;;;;;5075550;28;20020;-61
2022/04/23 02:25:11;;;;;;;5.68;5.07;;;10.20;76.10;;;;;;5076494;28;20059;-61
2022/04/23 02:27:55;;;;;;;7.90;6.00;;;10.10;76.30;;;;;;5082672;28;20452;-61
2022/04/23 02:30:21;;;;;;;6.30;5.25;;;10.10;76.50;;;;;;5075470;28;20020;-61
2022/04/23 02:32:48;;;;;;;7.13;6.00;;;10.10;76.80;;;;;;5076050;28;20101;-61
2022/04/23 02:35:16;;;;;;;7.28;6.20;;;10.10;77.00;;;;;;5079010;28;20098;-61
2022/04/23 02:37:44;;;;;;;7.47;6.32;;;10.10;77.10;;;;;;5083602;28;20505;-61
2022/04/23 02:40:10;;;;;;;9.50;7.95;;;10.10;77.10;;;;;;5075196;28;20047;-61
2022/04/23 02:42:37;;;;;;;9.05;7.47;;;10.20;77.40;;;;;;5075630;28;20037;-61
2022/04/23 02:45:04;;;;;;;9.35;7.85;;;10.10;77.60;;;;;;5077722;28;20125;-61
2022/04/23 02:47:41;;;;;;;9.18;7.55;;;10.10;77.80;;;;;;5074726;28;20071;-61
2022/04/23 02:50:07;;;;;;;7.70;6.90;;;10.00;78.00;;;;;;5076229;28;20043;-61
2022/04/23 02:52:32;;;;;;;8.98;6.82;;;10.00;78.20;;;;;;5072972;28;20056;-61
2022/04/23 02:54:58;;;;;;;9.82;7.68;;;10.00;78.30;;;;;;5078939;28;20462;-61
2022/04/23 02:57:24;;;;;;;10.70;8.15;;;10.00;78.50;;;;;;5075615;28;20033;-61
2022/04/23 02:59:49;;;;;;;12.40;9.05;;;9.90;78.60;;;;;;5077955;28;20017;-61
2022/04/23 03:02:15;;;;;;;10.10;8.32;;;9.90;78.90;;;;;;5074631;28;20025;-61
2022/04/23 03:04:42;;;;;;;11.65;9.80;;;10.00;79.10;;;;;;5081546;28;20024;-61
2022/04/23 03:07:09;;;;;;;11.40;8.18;;;9.90;79.10;;;;;;5076148;28;20037;-60
2022/04/23 03:09:34;;;;;;;9.90;8.73;;;10.00;79.10;;;;;;5077785;28;20101;-60
2022/04/23 03:12:00;;;;;;;10.85;8.65;;;10.10;79.20;;;;;;5075118;28;20032;-61
2022/04/23 03:14:26;;;;;;;10.13;8.13;;;10.10;79.30;;;;;;5074223;28;20024;-60
2022/04/23 03:16:51;;;;;;;10.52;8.40;;;10.10;79.40;;;;;;5080308;28;20030;-60
2022/04/23 03:19:17;;;;;;;9.48;8.02;;;10.10;79.40;;;;;;5074066;28;20049;-61
2022/04/23 03:21:42;;;;;;;9.57;7.55;;;10.10;79.50;;;;;;5082978;28;20032;-61
2022/04/23 03:24:08;;;;;;;10.07;7.78;;;10.10;79.60;;;;;;5074664;28;20044;-61
2022/04/23 03:26:34;;;;;;;10.43;8.88;;;10.20;79.90;;;;;;5070643;28;20038;-61
2022/04/23 03:28:59;;;;;;;11.57;8.82;;;10.20;80.10;;;;;;5084831;28;20429;-60
2022/04/23 03:31:25;;;;;;;8.88;7.85;;;10.20;80.10;;;;;;5075169;28;20117;-61
2022/04/23 03:33:50;;;;;;;9.63;8.48;;;10.20;80.10;;;;;;5086408;28;20166;-61
2022/04/23 03:36:17;;;;;;;10.27;8.40;;;10.20;80.30;;;;;;5080986;28;20028;-60
2022/04/23 03:38:43;;;;;;;9.13;6.78;;;10.20;80.30;;;;;;5073901;28;20053;-60
2022/04/23 03:41:09;;;;;;;9.85;8.20;;;10.20;80.40;;;;;;5070406;28;20025;-61
2022/04/23 03:43:35;;;;;;;11.43;7.93;;;10.20;80.50;;;;;;5081840;28;20377;-60
2022/04/23 03:46:00;;;;;;;10.88;8.40;;;10.20;80.70;;;;;;5077528;28;20028;-61
2022/04/23 03:48:26;;;;;;;11.13;8.60;;;10.10;80.60;;;;;;5073785;28;20025;-60
2022/04/23 03:50:52;;;;;;;9.52;7.82;;;10.20;80.90;;;;;;5075143;28;20068;-60
2022/04/23 03:53:18;;;;;;;9.27;7.80;;;10.20;81.00;;;;;;5076374;28;20055;-60
2022/04/23 03:55:44;;;;;;;8.90;7.30;;;10.10;81.00;;;;;;5073443;28;20024;-61
2022/04/23 03:58:09;;;;;;;7.82;7.03;;;10.10;81.00;;;;;;5070132;28;20021;-61
2022/04/23 04:00:35;;;;;;;7.90;6.90;;;10.10;81.20;;;;;;5078462;28;20100;-60
2022/04/23 04:03:01;;;;;;;7.70;6.85;;;10.10;81.20;;;;;;5074094;28;20482;-60
2022/04/23 04:05:28;;;;;;;7.53;6.40;;;10.10;81.30;;;;;;5078032;28;20086;-60
2022/04/23 04:07:54;;;;;;;7.65;6.30;;;10.00;81.50;;;;;;5081348;28;20036;-61
2022/04/23 04:10:21;;;;;;;7.07;6.30;;;10.00;81.60;;;;;;5076035;28;20103;-60
2022/04/23 04:12:48;;;;;;;8.10;7.30;;;10.00;81.80;;;;;;5080981;28;20055;-60
2022/04/23 04:15:17;;;;;;;9.25;7.35;;;10.00;82.70;;;;;;5075140;28;20388;-60
2022/04/23 04:17:44;;;;;;;9.32;8.00;;;10.00;82.20;;;;;;5075337;28;20499;-60
2022/04/23 04:20:14;;;;;;;7.93;6.80;;;10.00;82.50;;;;;;5081247;28;20063;-60
2022/04/23 04:22:41;;;;;;;8.95;7.18;;;10.00;82.40;;;;;;5082964;28;20361;-60
2022/04/23 04:25:08;;;;;;;7.72;6.93;;;10.00;82.60;;;;;;5075097;28;20020;-60
2022/04/23 04:27:35;;;;;;;7.25;6.55;;;10.00;82.70;;;;;;5086016;28;20491;-60
2022/04/23 04:30:08;;;;;;;7.43;6.63;;;10.00;83.00;;;;;;5074690;28;20029;-61
2022/04/23 04:32:34;;;;;;;8.98;6.70;;;9.90;83.20;;;;;;5072997;28;20551;-60
2022/04/23 04:35:00;;;;;;;7.50;6.70;;;9.90;83.40;;;;;;5072619;28;20029;-60
2022/04/23 04:37:27;;;;;;;7.78;6.97;;;9.90;83.60;;;;;;5073765;28;20396;-60
2022/04/23 04:39:53;;;;;;;8.43;7.38;;;9.90;83.90;;;;;;5072236;28;20028;-60
2022/04/23 04:42:19;;;;;;;7.35;6.65;;;9.90;84.10;;;;;;5075181;28;20086;-60
2022/04/23 04:44:45;;;;;;;14.40;12.88;;;9.90;84.40;;;;;;5072581;28;20040;-60
2022/04/23 04:47:11;;;;;;;14.63;13.13;;;9.90;84.50;;;;;;5081589;28;20035;-60
2022/04/23 04:49:37;;;;;;;10.35;9.25;;;9.90;84.80;;;;;;5072824;28;20499;-60
2022/04/23 04:52:03;;;;;;;9.10;8.20;;;9.90;84.90;;;;;;5074776;28;20024;-60
2022/04/23 04:54:29;;;;;;;8.98;8.07;;;9.90;84.90;;;;;;5071991;28;20029;-60
2022/04/23 04:56:56;;;;;;;9.25;8.27;;;9.90;85.10;;;;;;5076594;28;20480;-60
2022/04/23 04:59:22;;;;;;;9.75;7.93;;;9.90;85.10;;;;;;5077052;28;20021;-60
2022/04/23 05:01:48;;;;;;;9.52;8.02;;;9.90;85.10;;;;;;5081419;28;20119;-60
2022/04/23 05:04:14;;;;;;;10.63;9.32;;;9.90;85.00;;;;;;5072128;28;20028;-60
2022/04/23 05:06:40;;;;;;;10.02;9.00;;;9.90;85.00;;;;;;5066705;28;20112;-61
2022/04/23 05:09:05;;;;;;;10.13;8.93;;;9.90;85.10;;;;;;5072597;28;20056;-61
2022/04/23 05:11:31;;;;;;;9.63;8.63;;;9.90;85.10;;;;;;5083976;28;20091;-61
2022/04/23 05:13:56;;;;;;;11.43;9.43;;;9.90;85.20;;;;;;5074935;28;20108;-61
2022/04/23 05:16:22;;;;;;;10.35;9.25;;;9.90;85.10;;;;;;5073713;28;20112;-61
2022/04/23 05:18:48;;;;;;;11.38;10.15;;;9.90;85.20;;;;;;5079951;28;20051;-61
2022/04/23 05:21:13;;;;;;;10.50;9.43;;;10.00;85.40;;;;;;5079929;28;20035;-61
2022/04/23 05:23:39;;;;;;;9.82;8.82;;;9.90;85.40;;;;;;5064702;28;20029;-61
2022/04/23 05:26:05;;;;;;;10.93;9.20;;;10.00;85.30;;;;;;5076100;28;20029;-61
2022/04/23 05:28:32;;;;;;;11.60;10.40;;;10.00;85.30;;;;;;5071448;28;20498;-61
2022/04/23 05:30:58;;;;;;;11.93;9.68;;;10.00;85.30;;;;;;5085094;28;20126;-61
2022/04/23 05:33:23;;;;;;;11.40;10.13;;;10.00;85.30;;;;;;5081966;28;20487;-61
2022/04/23 05:35:49;;;;;;;9.73;8.70;;;9.90;85.30;;;;;;5081057;28;20043;-61
2022/04/23 05:38:17;;;;;;;10.95;9.38;;;9.90;85.40;;;;;;5084313;28;20095;-61
2022/04/23 05:40:43;;;;;;;11.20;10.00;;;10.00;85.60;;;;;;5070687;28;20430;-61
2022/04/23 05:43:09;;;;;;;11.95;9.70;;;10.00;85.50;;;;;;5071756;28;20029;-61
2022/04/23 05:45:34;;;;;;;11.07;9.20;;;10.00;85.50;;;;;;5077781;28;20115;-61
2022/04/23 05:48:00;;;;;;;11.68;10.25;;;10.10;85.40;;;;;;5076149;28;20025;-61
2022/04/23 05:50:26;;;;;;;11.75;9.55;;;10.10;85.30;;;;;;5075213;28;20181;-61
2022/04/23 05:52:52;;;;;;;10.73;9.38;;;10.20;85.10;;;;;;5074643;28;20399;-61
2022/04/23 05:55:17;;;;;;;10.77;9.50;;;10.20;84.70;;;;;;5073957;28;20369;-61
2022/04/23 05:57:43;;;;;;;10.57;9.40;;;10.30;84.40;;;;;;5074666;28;20017;-60
2022/04/23 06:00:10;;;;;;;10.80;9.68;;;10.40;84.20;;;;;;5072029;28;20024;-60
2022/04/23 06:02:36;;;;;;;8.98;8.07;;;10.50;84.50;;;;;;5074624;28;20039;-60
2022/04/23 06:05:03;;;;;;;9.90;8.90;;;10.50;83.40;;;;;;5071450;28;20029;-60
2022/04/23 06:07:29;;;;;;;9.57;8.32;;;10.50;83.30;;;;;;5071247;28;20637;-61
2022/04/23 06:09:55;;;;;;;9.38;8.20;;;10.50;83.10;;;;;;5073475;28;20032;-60
2022/04/23 06:12:21;;;;;;;9.05;7.72;;;10.50;83.00;;;;;;5083384;28;20100;-60
2022/04/23 06:14:46;;;;;;;9.23;7.80;;;10.50;82.90;;;;;;5064509;28;20072;-60
2022/04/23 06:17:12;;;;;;;8.32;7.40;;;10.60;82.90;;;;;;5071662;28;20021;-61
2022/04/23 06:19:39;;;;;;;8.80;7.60;;;10.60;83.40;;;;;;5072205;28;20105;-60
2022/04/23 06:22:05;;;;;;;9.02;8.10;;;10.60;82.50;;;;;;5084735;28;20036;-61
2022/04/23 06:24:31;;;;;;;8.65;7.55;;;10.60;82.30;;;;;;5072460;28;20111;-60
2022/04/23 06:26:57;;;;;;;8.23;7.35;;;10.70;82.10;;;;;;5079216;28;20107;-60
2022/04/23 06:29:22;;;;;;;8.88;7.80;;;10.70;82.00;;;;;;5074515;28;20067;-61
2022/04/23 06:31:48;;;;;;;9.38;7.78;;;10.80;82.00;;;;;;5071022;28;20029;-61
2022/04/23 06:34:14;;;;;;;8.32;7.18;;;10.90;81.60;;;;;;5074197;28;20464;-60
2022/04/23 06:36:40;;;;;;;8.90;6.93;;;11.00;81.20;;;;;;5075871;28;20029;-61
2022/04/23 06:39:06;;;;;;;7.53;6.72;;;11.10;80.70;;;;;;5083695;28;20384;-60
2022/04/23 06:41:32;;;;;;;7.45;6.50;;;11.20;80.50;;;;;;5074736;28;20033;-61
2022/04/23 06:43:57;;;;;;;8.10;7.28;;;11.30;80.40;;;;;;5078323;28;20038;-61
2022/04/23 06:46:23;;;;;;;7.55;6.45;;;11.40;80.10;;;;;;5081041;28;20036;-61
2022/04/23 06:48:49;;;;;;;7.93;6.65;;;11.60;79.70;;;;;;5071942;28;20031;-61
2022/04/23 06:51:14;;;;;;;7.72;6.88;;;11.70;78.80;;;;;;5076801;28;20052;-61
2022/04/23 06:53:41;;;;;;;7.00;6.30;;;11.80;78.30;;;;;;5081751;28;20032;-61
2022/04/23 06:56:07;;;;;;;7.35;6.30;;;11.90;77.90;;;;;;5076282;28;20430;-61
2022/04/23 06:58:32;;;;;;;7.13;6.43;;;11.90;77.50;;;;;;5074645;28;20017;-61
2022/04/23 07:00:58;;;;;;;7.20;6.50;;;12.00;77.20;;;;;;5076427;28;20032;-61
2022/04/23 07:03:27;;;;;;;7.82;7.03;;;12.00;77.60;;;;;;5086163;28;20036;-61
2022/04/23 07:05:53;;;;;;;6.90;6.28;;;12.00;77.60;;;;;;5077934;28;20115;-61
2022/04/23 07:08:19;;;;;;;7.63;6.85;;;12.00;78.20;;;;;;5074754;28;20062;-61
2022/04/23 07:10:45;;;;;;;8.63;7.68;;;12.00;78.60;;;;;;5080650;28;20126;-61
2022/04/23 07:13:11;;;;;;;6.78;6.07;;;12.10;79.20;;;;;;5076219;28;20467;-61
2022/04/23 07:15:39;;;;;;;6.90;6.18;;;12.10;79.40;;;;;;5078330;28;20035;-61
2022/04/23 07:18:06;;;;;;;6.43;5.82;;;12.20;79.30;;;;;;5082715;28;20052;-61
2022/04/23 07:20:31;;;;;;;6.78;6.07;;;12.20;79.70;;;;;;5073675;28;20488;-61
2022/04/23 07:25:41;;;;;;;6.20;5.53;;;12.30;79.10;;;;;;5073240;28;20032;-61
2022/04/23 07:28:07;;;;;;;6.97;6.28;;;12.50;79.30;;;;;;5072260;28;20059;-61
2022/04/23 07:30:34;;;;;;;6.55;5.82;;;12.60;78.90;;;;;;5084191;28;20414;-61
2022/04/23 07:33:00;;;;;;;6.47;5.80;;;12.70;78.10;;;;;;5071780;28;20107;-61
2022/04/23 07:38:18;;;;;;;6.22;5.63;;;12.80;76.90;;;;;;5064355;28;20553;-60
2022/04/23 07:40:44;;;;;;;5.28;4.78;;;12.80;76.20;;;;;;5064160;28;20028;-58
2022/04/23 07:43:13;;;;;;;5.63;5.13;;;12.80;75.80;;;;;;5059975;28;20044;-60
2022/04/23 07:45:39;;;;;;;5.70;5.20;;;12.80;75.80;;;;;;5065719;28;20115;-60
2022/04/23 07:48:09;;;;;;;5.80;5.20;;;12.80;75.90;;;;;;5063802;28;20027;-60
2022/04/23 07:50:37;;;;;;;5.45;4.78;;;12.90;75.90;;;;;;5065342;28;20020;-59
2022/04/23 07:53:03;;;;;;;5.90;4.90;;;12.90;75.90;;;;;;5061863;28;20033;-59
2022/04/23 07:55:30;;;;;;;6.32;5.45;;;12.90;76.20;;;;;;5062757;28;20024;-59
2022/04/23 07:57:59;;;;;;;5.65;4.90;;;13.00;76.10;;;;;;5063319;28;20032;-60
2022/04/23 08:00:29;;;;;;;5.55;4.70;;;13.00;75.90;;;;;;5064692;28;20119;-59
2022/04/23 08:02:56;;;;;;;4.70;4.20;;;13.10;76.00;;;;;;5071249;28;20040;-59
2022/04/23 08:05:21;;;;;;;4.70;4.15;;;13.20;73.30;;;;;;5062290;28;20085;-60
2022/04/23 08:07:47;;;;;;;4.72;4.10;;;13.30;71.90;;;;;;5061249;28;20527;-60
2022/04/23 08:10:13;;;;;;;5.85;3.75;;;13.50;71.10;;;;;;5072511;28;20107;-60
2022/04/23 08:12:39;;;;;;;4.88;4.35;;;13.70;70.00;;;;;;5070481;28;20128;-59
2022/04/23 08:15:06;;;;;;;4.95;4.45;;;13.90;69.60;;;;;;5061638;28;20500;-60
2022/04/23 08:17:32;;;;;;;4.70;4.20;;;14.10;68.50;;;;;;5074375;28;20384;-59
2022/04/23 08:19:57;;;;;;;4.50;4.10;;;14.10;68.30;;;;;;5073040;28;20334;-60
2022/04/23 08:22:23;;;;;;;4.90;4.20;;;14.20;68.40;;;;;;5070588;28;20178;-59
2022/04/23 08:24:49;;;;;;;4.35;3.95;;;14.30;67.60;;;;;;5069382;28;20338;-60
2022/04/23 08:27:14;;;;;;;5.22;4.57;;;14.30;66.60;;;;;;5070016;28;20383;-60
2022/04/23 08:32:24;;;;;;;5.30;4.55;;;14.40;67.00;;;;;;5065582;28;20404;-60
2022/04/23 08:34:50;;;;;;;5.00;4.50;;;14.40;67.20;;;;;;5073187;28;20022;-60
2022/04/23 08:37:15;;;;;;;4.80;4.30;;;14.40;67.10;;;;;;5076997;28;20025;-60
2022/04/23 08:39:42;;;;;;;4.13;3.70;;;14.40;67.10;;;;;;5069116;28;20020;-59
2022/04/23 08:42:10;;;;;;;4.38;3.58;;;14.40;66.70;;;;;;5070081;28;20024;-60
2022/04/23 08:44:37;;;;;;;3.70;3.25;;;14.50;65.30;;;;;;5068700;28;20036;-60
2022/04/23 08:47:04;;;;;;;3.33;3.03;;;14.70;64.40;;;;;;5070292;28;20688;-60
2022/04/23 08:49:34;;;;;;;3.85;3.30;;;14.80;64.00;;;;;;5070530;28;20037;-60
2022/04/23 08:52:16;;;;;;;3.15;2.85;;;15.00;62.00;;;;;;5068947;28;20036;-60
2022/04/23 08:54:43;;;;;;;3.25;2.95;;;15.10;60.90;;;;;;5066174;28;20103;-60
2022/04/23 08:57:09;;;;;;;3.50;3.05;;;15.30;60.80;;;;;;5063516;28;20024;-60
2022/04/23 08:59:35;;;;;;;5.38;3.05;;;15.30;60.40;;;;;;5063395;28;20040;-60
2022/04/23 09:02:02;;;;;;;3.85;3.30;;;15.40;60.20;;;;;;5071608;28;20124;-60
2022/04/23 09:04:28;;;;;;;6.72;3.30;;;15.40;60.00;;;;;;5068720;28;20032;-60
2022/04/23 09:06:54;;;;;;;4.00;3.50;;;15.50;60.10;;;;;;5068196;28;20047;-60
2022/04/23 09:09:24;;;;;;;3.58;3.08;;;15.60;59.60;;;;;;5070558;28;20020;-60
2022/04/23 09:11:56;;;;;;;3.78;3.17;;;15.70;59.30;;;;;;5071350;28;20036;-60
2022/04/23 09:14:33;;;;;;;3.67;3.22;;;15.80;59.90;;;;;;5066711;28;20720;-60
2022/04/23 09:25:35;;;;;;;2.70;2.47;;;16.10;56.70;;;;;;5062411;28;20606;-60
2022/04/23 09:28:20;;;;;;;3.13;2.83;;;16.10;54.00;;;;;;5061056;28;20052;-60
2022/04/23 09:30:50;;;;;;;2.60;2.40;;;16.10;53.20;;;;;;5085537;28;20035;-60
2022/04/23 09:33:17;;;;;;;4.20;2.60;;;16.10;55.00;;;;;;5073609;28;20070;-60
2022/04/23 09:35:55;;;;;;;2.70;2.50;;;16.10;54.50;;;;;;5070647;28;20016;-60
2022/04/23 09:38:21;;;;;;;2.53;2.10;;;16.10;53.40;;;;;;5067677;28;20044;-60
2022/04/23 09:40:53;;;;;;;2.65;2.42;;;16.10;53.90;;;;;;5062971;28;20058;-60
2022/04/23 09:43:37;;;;;;;3.00;2.70;;;16.10;53.60;;;;;;5065476;28;20024;-60
2022/04/23 09:46:08;;;;;;;2.70;2.50;;;16.10;53.00;;;;;;5059567;28;20020;-60
2022/04/23 09:48:35;;;;;;;2.92;2.70;;;16.20;52.90;;;;;;5064908;28;20017;-60
2022/04/23 09:51:01;;;;;;;2.50;2.30;;;16.20;52.60;;;;;;5028655;28;20036;-60
2022/04/23 09:53:28;;;;;;;4.05;2.67;;;16.20;52.50;;;;;;5049039;28;20051;-62
2022/04/23 09:55:59;;;;;;;3.88;3.13;;;16.10;52.30;;;;;;5064979;28;20040;-58
2022/04/23 09:58:26;;;;;;;2.80;2.58;;;16.10;52.50;;;;;;5067235;28;20079;-60
2022/04/23 10:00:52;;;;;;;2.70;2.47;;;16.10;52.70;;;;;;5068966;28;20476;-60
2022/04/23 10:03:19;;;;;;;3.40;3.10;;;16.20;52.50;;;;;;5064318;28;21444;-60
2022/04/23 10:05:46;;;;;;;3.08;2.60;;;16.20;52.30;;;;;;5073295;28;20033;-60
2022/04/23 10:08:14;;;;;;;3.08;2.78;;;16.20;51.80;;;;;;5069193;28;20027;-60
2022/04/23 10:11:01;;;;;;;3.15;2.83;;;16.20;52.10;;;;;;5072510;28;20120;-59
2022/04/23 10:13:29;;;;;;;3.03;2.60;;;16.10;52.10;;;;;;5056537;28;20567;-59
2022/04/23 10:15:57;;;;;;;3.00;2.60;;;16.10;52.20;;;;;;5071333;28;20029;-60
2022/04/23 10:18:23;;;;;;;3.70;3.05;;;16.10;52.40;;;;;;5081787;28;20097;-60
2022/04/23 10:20:57;;;;;;;3.05;2.75;;;16.20;52.40;;;;;;5073307;28;20032;-60
2022/04/23 10:23:25;;;;;;;3.20;2.90;;;16.20;52.20;;;;;;5073232;28;20020;-59
2022/04/23 10:26:20;;;;;;;2.90;2.70;;;16.20;52.80;;;;;;5066822;28;20078;-60
2022/04/23 10:28:48;;;;;;;4.15;2.97;;;16.20;51.70;;;;;;5072036;28;20480;-60
2022/04/23 10:31:15;;;;;;;3.33;2.80;;;16.10;51.40;;;;;;5069297;28;20097;-59
2022/04/23 10:33:46;;;;;;;3.65;2.97;;;16.10;51.50;;;;;;5070197;28;20107;-60
2022/04/23 10:36:13;;;;;;;2.93;2.63;;;16.10;51.50;;;;;;5067929;28;20029;-60
2022/04/23 10:38:44;;;;;;;3.85;3.30;;;16.00;51.50;;;;;;5067376;28;20083;-63
2022/04/23 10:41:13;;;;;;;3.33;2.92;;;16.00;51.50;;;;;;5068022;28;20032;-59
2022/04/23 10:43:52;;;;;;;3.63;2.90;;;16.00;51.60;;;;;;5067948;28;20056;-60
2022/04/23 10:46:36;;;;;;;2.67;2.47;;;16.00;51.80;;;;;;5067130;28;20024;-60
2022/04/23 10:49:22;;;;;;;3.17;2.88;;;16.00;51.50;;;;;;5067525;28;20024;-58
2022/04/23 10:51:55;;;;;;;2.88;2.67;;;16.00;51.40;;;;;;5057196;28;20069;-60
2022/04/23 10:54:44;;;;;;;3.20;2.90;;;16.00;51.50;;;;;;5069533;28;20024;-58
2022/04/23 10:57:13;;;;;;;2.80;2.60;;;16.00;50.70;;;;;;5055765;28;20039;-58
2022/04/23 10:59:48;;;;;;;3.25;2.80;;;15.90;51.50;;;;;;5070779;28;20059;-58
2022/04/23 11:02:29;;;;;;;2.47;2.28;;;15.90;51.30;;;;;;5069155;28;20048;-58
2022/04/23 11:13:27;;;;;;;3.40;2.80;;;15.70;51.60;;;;;;5071361;28;20396;-59
2022/04/23 11:16:10;;;;;;;2.90;2.60;;;15.60;51.30;;;;;;5072401;28;20094;-57
2022/04/23 11:18:37;;;;;;;7.15;2.90;;;15.50;51.60;;;;;;5070779;28;20036;-58
2022/04/23 11:21:26;;;;;;;2.75;2.55;;;15.40;52.00;;;;;;5068807;28;20028;-61
2022/04/23 11:23:54;;;;;;;3.92;3.08;;;15.30;51.70;;;;;;5067598;28;20495;-61
2022/04/23 11:26:46;;;;;;;2.80;2.58;;;15.30;52.40;;;;;;5065453;28;20020;-61
2022/04/23 11:29:13;;;;;;;3.85;2.90;;;15.20;52.70;;;;;;5071063;28;20116;-59
2022/04/23 11:31:39;;;;;;;2.88;2.60;;;15.20;52.80;;;;;;5065530;28;20036;-61
2022/04/23 11:34:05;;;;;;;3.70;2.97;;;15.10;53.00;;;;;;5066460;28;20784;-58
2022/04/23 11:36:37;;;;;;;3.95;3.03;;;15.10;53.40;;;;;;5071927;28;20032;-58
2022/04/23 11:39:08;;;;;;;4.75;3.50;;;15.00;53.80;;;;;;5071573;28;20029;-61
2022/04/23 11:41:40;;;;;;;4.50;3.55;;;14.80;54.00;;;;;;5063829;28;20154;-59
2022/04/23 11:44:13;;;;;;;4.25;3.60;;;14.70;54.40;;;;;;5067500;28;20492;-60
2022/04/23 11:46:50;;;;;;;3.67;3.38;;;14.50;54.80;;;;;;5071054;28;20392;-61
2022/04/23 11:49:26;;;;;;;4.05;3.25;;;14.40;55.10;;;;;;5068372;28;20047;-61
2022/04/23 11:52:14;;;;;;;3.72;3.42;;;14.20;55.60;;;;;;5070073;28;20033;-60
2022/04/23 11:54:41;;;;;;;4.00;3.50;;;14.10;56.60;;;;;;5066864;28;20017;-61
2022/04/23 11:57:09;;;;;;;3.40;3.10;;;14.00;57.90;;;;;;5063438;28;20024;-61
2022/04/23 11:59:42;;;;;;;3.95;3.45;;;13.90;58.70;;;;;;5069931;28;20028;-60
2022/04/23 12:02:21;;;;;;;5.28;3.85;;;13.70;59.80;;;;;;5064472;28;20108;-60
2022/04/23 12:04:48;;;;;;;4.40;4.00;;;13.50;61.00;;;;;;5057209;28;20526;-60
2022/04/23 12:07:15;;;;;;;4.90;4.40;;;13.30;61.90;;;;;;5067088;28;20044;-60
2022/04/23 12:09:50;;;;;;;4.85;4.20;;;13.10;62.60;;;;;;5074167;28;20471;-60
2022/04/23 12:12:20;;;;;;;5.20;4.40;;;13.00;63.10;;;;;;5067089;28;20502;-61
2022/04/23 12:14:50;;;;;;;4.93;4.22;;;12.90;63.80;;;;;;5074796;28;20095;-60
2022/04/23 12:17:21;;;;;;;6.90;5.00;;;12.80;64.20;;;;;;5076500;28;20509;-59
2022/04/23 12:19:48;;;;;;;4.38;3.97;;;12.70;64.90;;;;;;5075337;28;20047;-60
2022/04/23 12:22:33;;;;;;;4.28;3.88;;;12.60;65.30;;;;;;5084527;28;20407;-60
2022/04/23 12:25:09;;;;;;;4.63;3.72;;;12.60;66.20;;;;;;5068665;28;20385;-60
2022/04/23 12:27:54;;;;;;;4.97;4.30;;;12.50;68.10;;;;;;5072651;28;20093;-60
2022/04/23 12:41:59;;;;;;;4.82;4.30;;;12.10;69.60;;;;;;5070976;28;20035;-60
2022/04/23 12:44:44;;;;;;;5.68;4.60;;;12.20;69.20;;;;;;5074786;28;20032;-61
2022/04/23 12:47:18;;;;;;;4.55;4.10;;;12.30;69.40;;;;;;5072120;28;20074;-60
2022/04/23 12:49:58;;;;;;;4.82;4.03;;;12.30;69.60;;;;;;5072883;28;20035;-60
2022/04/23 12:52:36;;;;;;;5.03;4.50;;;12.40;69.80;;;;;;5088327;28;20066;-60
2022/04/23 12:55:22;;;;;;;6.38;4.57;;;12.40;69.70;;;;;;5072146;28;20021;-60
2022/04/23 12:57:53;;;;;;;5.28;4.68;;;12.40;70.50;;;;;;5072455;28;20028;-60
2022/04/23 13:00:24;;;;;;;5.82;4.50;;;12.40;70.10;;;;;;5078451;28;20498;-60
2022/04/23 13:02:54;;;;;;;6.68;4.43;;;12.40;70.10;;;;;;5064380;28;20033;-60
2022/04/23 13:05:20;;;;;;;5.53;4.75;;;12.40;70.20;;;;;;5073090;28;20024;-61
2022/04/23 13:10:31;;;;;;;5.20;4.50;;;12.40;70.80;;;;;;5076471;28;20371;-60
2022/04/23 13:12:57;;;;;;;5.47;4.88;;;12.40;70.90;;;;;;5071809;28;20496;-59
2022/04/23 13:15:23;;;;;;;4.93;4.43;;;12.40;71.00;;;;;;5071872;28;20044;-60
2022/04/23 13:17:49;;;;;;;5.05;4.53;;;12.40;71.00;;;;;;5072173;28;20024;-60
2022/04/23 13:20:16;;;;;;;6.18;4.45;;;12.40;70.90;;;;;;5075532;28;20040;-60
2022/04/23 13:22:43;;;;;;;5.97;4.90;;;12.40;70.80;;;;;;5072125;28;20027;-60
2022/04/23 13:25:13;;;;;;;5.50;4.80;;;12.40;70.90;;;;;;5078739;28;20107;-60
2022/04/23 13:27:39;;;;;;;5.15;4.47;;;12.40;71.10;;;;;;5085323;28;20071;-60
2022/04/23 13:30:06;;;;;;;6.38;4.47;;;12.40;71.50;;;;;;5073180;28;20033;-60